Antarctic — D5BM7 — position and weather

sailwx.info

Track history (hours):
 
Tides and Currents Weather Stations Pressure Air Temp Water Temp Dewpoint Dewpoint Depression Visibility Wind Speed Wind Dir Waves Ship Positions

Antarctic

Last reported at 2017-Nov-14 11:31 UTC. Time now 2017-Nov-17 17:42 UTC.
Position N 37°40' E 024°31'.

Length 274 m; draft 9.2 m.

Type: Tanker. MMSI: 636015560.

Date/timePositionNaut miles runAvg speedWind from/ knotsBaromVisibWave heightAir tempDewpointWater temp
2017-Nov-14 11:31N 37°40' E 024°31'1 7.9
2017-Nov-14 11:27N 37°39' E 024°31'47010.3
2017-Nov-12 13:36N 36°15' E 014°52'1 5.3
2017-Nov-12 13:30N 36°15' E 014°51'3 5.8
2017-Nov-12 12:56N 36°15' E 014°47'2 5.1
2017-Nov-12 12:30N 36°15' E 014°44'3 5.3
2017-Nov-12 11:59N 36°16' E 014°41'2 4.8
2017-Nov-12 11:29N 36°16' E 014°38'3 5.2
2017-Nov-12 10:59N 36°16' E 014°35'2 4.7
2017-Nov-12 10:30N 36°17' E 014°32'3 5.1
2017-Nov-12 10:00N 36°18' E 014°29'2 4.8
2017-Nov-12 09:30N 36°18' E 014°26'2 4.9
2017-Nov-12 09:00N 36°19' E 014°23'3 5.0
2017-Nov-12 08:30N 36°20' E 014°20'3 5.3
2017-Nov-12 08:00N 36°20' E 014°17'4 5.6
2017-Nov-12 07:21N 36°21' E 014°13'2 5.5
2017-Nov-12 07:00N 36°22' E 014°10'3 5.5
2017-Nov-12 06:30N 36°23' E 014°07'5 9.8
2017-Nov-12 06:00N 36°24' E 014°01'611.7
2017-Nov-12 05:30N 36°26' E 013°54'611.9
2017-Nov-12 05:00N 36°28' E 013°47'611.9
2017-Nov-12 04:30N 36°30' E 013°40'611.8
2017-Nov-12 04:00N 36°31' E 013°33'  
2017-Nov-07 14:45N 36°21' W 004°23'0 0.8
2017-Nov-07 14:27N 36°21' W 004°23'0 0.6
2017-Nov-07 14:00N 36°21' W 004°23'2 0.5
2017-Nov-07 10:56N 36°20' W 004°25'1 0.7
2017-Nov-07 08:51N 36°20' W 004°26'0 0.8
2017-Nov-07 08:30N 36°20' W 004°27'0 0.7
2017-Nov-07 08:00N 36°20' W 004°27'0 0.7
2017-Nov-07 07:30N 36°19' W 004°28'0 0.6
2017-Nov-07 07:00N 36°19' W 004°28'0 0.6
2017-Nov-07 06:30N 36°19' W 004°28'0 0.6
2017-Nov-07 06:00N 36°19' W 004°28'0 0.6
2017-Nov-07 05:30N 36°19' W 004°28'0 0.7
2017-Nov-07 05:00N 36°18' W 004°29'0 0.5
2017-Nov-07 04:30N 36°18' W 004°29'0 0.4
2017-Nov-07 04:00N 36°18' W 004°29'0 0.4
2017-Nov-07 03:30N 36°18' W 004°29'0 0.4
2017-Nov-07 03:00N 36°17' W 004°29'0 0.4
2017-Nov-07 02:30N 36°17' W 004°29'  
Track history (hours):
 
Tides and Currents Weather Stations Pressure Air Temp Water Temp Dewpoint Dewpoint Depression Visibility Wind Speed Wind Dir Waves Ship Positions

Antarctic

Last reported at 2017-Nov-14 11:31 UTC. Time now 2017-Nov-17 17:42 UTC.
Position N 37°40' E 024°31'.

Length 274 m; draft 9.2 m.

Type: Tanker. MMSI: 636015560.

Date/timePositionNaut miles runAvg speedWind from/ knotsBaromVisibWave heightAir tempDewpointWater temp
2017-Nov-14 11:31N 37°40' E 024°31'1 7.9
2017-Nov-14 11:27N 37°39' E 024°31'47010.3
2017-Nov-12 13:36N 36°15' E 014°52'1 5.3
2017-Nov-12 13:30N 36°15' E 014°51'3 5.8
2017-Nov-12 12:56N 36°15' E 014°47'2 5.1
2017-Nov-12 12:30N 36°15' E 014°44'3 5.3
2017-Nov-12 11:59N 36°16' E 014°41'2 4.8
2017-Nov-12 11:29N 36°16' E 014°38'3 5.2
2017-Nov-12 10:59N 36°16' E 014°35'2 4.7
2017-Nov-12 10:30N 36°17' E 014°32'3 5.1
2017-Nov-12 10:00N 36°18' E 014°29'2 4.8
2017-Nov-12 09:30N 36°18' E 014°26'2 4.9
2017-Nov-12 09:00N 36°19' E 014°23'3 5.0
2017-Nov-12 08:30N 36°20' E 014°20'3 5.3
2017-Nov-12 08:00N 36°20' E 014°17'4 5.6
2017-Nov-12 07:21N 36°21' E 014°13'2 5.5
2017-Nov-12 07:00N 36°22' E 014°10'3 5.5
2017-Nov-12 06:30N 36°23' E 014°07'5 9.8
2017-Nov-12 06:00N 36°24' E 014°01'611.7
2017-Nov-12 05:30N 36°26' E 013°54'611.9
2017-Nov-12 05:00N 36°28' E 013°47'611.9
2017-Nov-12 04:30N 36°30' E 013°40'611.8
2017-Nov-12 04:00N 36°31' E 013°33'  
2017-Nov-07 14:45N 36°21' W 004°23'0 0.8
2017-Nov-07 14:27N 36°21' W 004°23'0 0.6
2017-Nov-07 14:00N 36°21' W 004°23'2 0.5
2017-Nov-07 10:56N 36°20' W 004°25'1 0.7
2017-Nov-07 08:51N 36°20' W 004°26'0 0.8
2017-Nov-07 08:30N 36°20' W 004°27'0 0.7
2017-Nov-07 08:00N 36°20' W 004°27'0 0.7
2017-Nov-07 07:30N 36°19' W 004°28'0 0.6
2017-Nov-07 07:00N 36°19' W 004°28'0 0.6
2017-Nov-07 06:30N 36°19' W 004°28'0 0.6
2017-Nov-07 06:00N 36°19' W 004°28'0 0.6
2017-Nov-07 05:30N 36°19' W 004°28'0 0.7
2017-Nov-07 05:00N 36°18' W 004°29'0 0.5
2017-Nov-07 04:30N 36°18' W 004°29'0 0.4
2017-Nov-07 04:00N 36°18' W 004°29'0 0.4
2017-Nov-07 03:30N 36°18' W 004°29'0 0.4
2017-Nov-07 03:00N 36°17' W 004°29'0 0.4
2017-Nov-07 02:30N 36°17' W 004°29'  

Dump ship's entire track history